sensor_id;sensor_type;location;lat;lon;timestamp;pressure;altitude;pressure_sealevel;temperature;humidity
8298;BME280;4187;42.778;23.242;2022-08-21T00:00:21;94762.97;;;19.67;100.00
8298;BME280;4187;42.778;23.242;2022-08-21T00:02:51;94760.13;;;19.55;100.00
8298;BME280;4187;42.778;23.242;2022-08-21T00:05:20;94759.72;;;19.52;100.00
8298;BME280;4187;42.778;23.242;2022-08-21T00:07:50;94765.31;;;19.44;100.00
8298;BME280;4187;42.778;23.242;2022-08-21T00:10:18;94759.34;;;19.48;100.00
8298;BME280;4187;42.778;23.242;2022-08-21T00:12:46;94753.78;;;19.43;100.00
8298;BME280;4187;42.778;23.242;2022-08-21T00:15:17;94749.69;;;19.41;100.00
8298;BME280;4187;42.778;23.242;2022-08-21T00:17:45;94739.41;;;19.38;100.00
8298;BME280;4187;42.778;23.242;2022-08-21T00:20:15;94738.75;;;19.42;100.00
8298;BME280;4187;42.778;23.242;2022-08-21T00:22:43;94721.66;;;19.37;100.00
8298;BME280;4187;42.778;23.242;2022-08-21T00:25:13;94734.41;;;19.48;100.00
8298;BME280;4187;42.778;23.242;2022-08-21T00:27:42;94737.94;;;19.42;100.00
8298;BME280;4187;42.778;23.242;2022-08-21T00:30:11;94729.72;;;19.43;100.00
8298;BME280;4187;42.778;23.242;2022-08-21T00:32:40;94708.34;;;19.24;100.00
8298;BME280;4187;42.778;23.242;2022-08-21T00:35:10;94730.72;;;19.36;100.00
8298;BME280;4187;42.778;23.242;2022-08-21T00:37:38;94724.34;;;19.37;100.00
8298;BME280;4187;42.778;23.242;2022-08-21T00:40:08;94725.38;;;19.36;100.00
8298;BME280;4187;42.778;23.242;2022-08-21T00:42:37;94717.56;;;19.28;100.00
8298;BME280;4187;42.778;23.242;2022-08-21T00:45:07;94730.75;;;19.29;100.00
8298;BME280;4187;42.778;23.242;2022-08-21T00:47:35;94730.53;;;19.31;100.00
8298;BME280;4187;42.778;23.242;2022-08-21T00:50:05;94715.94;;;19.27;100.00
8298;BME280;4187;42.778;23.242;2022-08-21T00:52:35;94721.06;;;19.28;100.00
8298;BME280;4187;42.778;23.242;2022-08-21T00:55:07;94720.91;;;19.23;100.00
8298;BME280;4187;42.778;23.242;2022-08-21T00:57:41;94729.34;;;19.27;100.00
8298;BME280;4187;42.778;23.242;2022-08-21T01:00:13;94720.47;;;19.20;100.00
8298;BME280;4187;42.778;23.242;2022-08-21T01:02:41;94734.88;;;19.25;100.00
8298;BME280;4187;42.778;23.242;2022-08-21T01:05:10;94736.34;;;19.21;100.00
8298;BME280;4187;42.778;23.242;2022-08-21T01:07:38;94722.81;;;19.03;100.00
8298;BME280;4187;42.778;23.242;2022-08-21T01:10:07;94704.16;;;18.83;100.00
8298;BME280;4187;42.778;23.242;2022-08-21T01:12:37;94715.63;;;18.90;100.00
8298;BME280;4187;42.778;23.242;2022-08-21T01:15:06;94722.22;;;18.88;100.00
8298;BME280;4187;42.778;23.242;2022-08-21T01:17:35;94720.97;;;18.90;100.00
8298;BME280;4187;42.778;23.242;2022-08-21T01:20:07;94718.13;;;18.92;100.00
8298;BME280;4187;42.778;23.242;2022-08-21T01:22:38;94714.00;;;18.89;100.00
8298;BME280;4187;42.778;23.242;2022-08-21T01:25:07;94712.78;;;18.92;100.00
8298;BME280;4187;42.778;23.242;2022-08-21T01:27:35;94706.59;;;18.91;100.00
8298;BME280;4187;42.778;23.242;2022-08-21T01:30:09;94708.66;;;18.89;100.00
8298;BME280;4187;42.778;23.242;2022-08-21T01:32:38;94695.72;;;18.86;100.00
8298;BME280;4187;42.778;23.242;2022-08-21T01:35:06;94694.66;;;18.87;100.00
8298;BME280;4187;42.778;23.242;2022-08-21T01:37:36;94704.13;;;18.90;100.00
8298;BME280;4187;42.778;23.242;2022-08-21T01:40:05;94699.63;;;18.84;100.00
8298;BME280;4187;42.778;23.242;2022-08-21T01:42:34;94710.13;;;18.79;100.00
8298;BME280;4187;42.778;23.242;2022-08-21T01:45:01;94695.34;;;18.63;100.00
8298;BME280;4187;42.778;23.242;2022-08-21T01:47:29;94726.16;;;18.79;100.00
8298;BME280;4187;42.778;23.242;2022-08-21T01:49:57;94726.78;;;18.74;100.00
8298;BME280;4187;42.778;23.242;2022-08-21T01:52:26;94654.25;;;18.38;100.00
8298;BME280;4187;42.778;23.242;2022-08-21T01:54:55;94690.19;;;18.55;100.00
8298;BME280;4187;42.778;23.242;2022-08-21T01:57:23;94708.06;;;18.74;100.00
8298;BME280;4187;42.778;23.242;2022-08-21T01:59:50;94708.66;;;18.76;100.00
8298;BME280;4187;42.778;23.242;2022-08-21T02:02:18;94705.81;;;18.78;100.00
8298;BME280;4187;42.778;23.242;2022-08-21T02:04:46;94711.34;;;18.76;100.00
8298;BME280;4187;42.778;23.242;2022-08-21T02:07:14;94703.53;;;18.75;100.00
8298;BME280;4187;42.778;23.242;2022-08-21T02:09:42;94704.97;;;18.77;100.00
8298;BME280;4187;42.778;23.242;2022-08-21T02:12:11;94706.41;;;18.80;100.00
8298;BME280;4187;42.778;23.242;2022-08-21T02:14:39;94710.94;;;18.79;100.00
8298;BME280;4187;42.778;23.242;2022-08-21T02:17:07;94707.88;;;18.76;100.00
8298;BME280;4187;42.778;23.242;2022-08-21T02:19:35;94708.69;;;18.70;100.00
8298;BME280;4187;42.778;23.242;2022-08-21T02:22:03;94707.03;;;18.69;100.00
8298;BME280;4187;42.778;23.242;2022-08-21T02:24:31;94714.88;;;18.64;100.00
8298;BME280;4187;42.778;23.242;2022-08-21T02:26:59;94710.97;;;18.60;100.00
8298;BME280;4187;42.778;23.242;2022-08-21T02:29:28;94718.16;;;18.52;100.00
8298;BME280;4187;42.778;23.242;2022-08-21T02:31:56;94716.94;;;18.48;100.00
8298;BME280;4187;42.778;23.242;2022-08-21T02:34:24;94716.50;;;18.38;100.00
8298;BME280;4187;42.778;23.242;2022-08-21T02:36:51;94717.13;;;18.34;100.00
8298;BME280;4187;42.778;23.242;2022-08-21T02:39:19;94717.94;;;18.34;100.00
8298;BME280;4187;42.778;23.242;2022-08-21T02:41:47;94724.72;;;18.37;100.00
8298;BME280;4187;42.778;23.242;2022-08-21T02:44:15;94722.47;;;18.27;100.00
8298;BME280;4187;42.778;23.242;2022-08-21T02:46:44;94730.91;;;18.24;100.00
8298;BME280;4187;42.778;23.242;2022-08-21T02:49:12;94727.78;;;18.14;100.00
8298;BME280;4187;42.778;23.242;2022-08-21T02:51:40;94729.22;;;18.04;100.00
8298;BME280;4187;42.778;23.242;2022-08-21T02:54:08;94737.81;;;17.92;100.00
8298;BME280;4187;42.778;23.242;2022-08-21T02:56:35;94734.94;;;17.87;100.00
8298;BME280;4187;42.778;23.242;2022-08-21T02:59:03;94735.56;;;17.96;100.00
8298;BME280;4187;42.778;23.242;2022-08-21T03:01:31;94734.13;;;17.93;100.00
8298;BME280;4187;42.778;23.242;2022-08-21T03:04:00;94729.41;;;17.96;100.00
8298;BME280;4187;42.778;23.242;2022-08-21T03:06:28;94740.94;;;18.03;100.00
8298;BME280;4187;42.778;23.242;2022-08-21T03:08:56;94733.75;;;18.10;100.00
8298;BME280;4187;42.778;23.242;2022-08-21T03:11:24;94735.38;;;18.17;100.00
8298;BME280;4187;42.778;23.242;2022-08-21T03:13:52;94739.69;;;18.25;100.00
8298;BME280;4187;42.778;23.242;2022-08-21T03:16:21;94744.22;;;18.31;100.00
8298;BME280;4187;42.778;23.242;2022-08-21T03:18:49;94744.06;;;18.32;100.00
8298;BME280;4187;42.778;23.242;2022-08-21T03:21:17;94744.66;;;18.34;100.00
8298;BME280;4187;42.778;23.242;2022-08-21T03:23:46;94748.34;;;18.40;100.00
8298;BME280;4187;42.778;23.242;2022-08-21T03:26:14;94746.50;;;18.40;100.00
8298;BME280;4187;42.778;23.242;2022-08-21T03:28:42;94742.00;;;18.41;100.00
8298;BME280;4187;42.778;23.242;2022-08-21T03:31:10;94737.25;;;18.43;100.00
8298;BME280;4187;42.778;23.242;2022-08-21T03:33:38;94738.50;;;18.40;100.00
8298;BME280;4187;42.778;23.242;2022-08-21T03:36:10;94730.06;;;18.30;100.00
8298;BME280;4187;42.778;23.242;2022-08-21T03:38:39;94748.78;;;18.43;100.00
8298;BME280;4187;42.778;23.242;2022-08-21T03:41:08;94740.31;;;18.46;100.00
8298;BME280;4187;42.778;23.242;2022-08-21T03:43:36;94737.84;;;18.38;100.00
8298;BME280;4187;42.778;23.242;2022-08-21T03:46:05;94740.94;;;18.42;100.00
8298;BME280;4187;42.778;23.242;2022-08-21T03:48:34;94735.63;;;18.35;100.00
8298;BME280;4187;42.778;23.242;2022-08-21T03:51:02;94748.16;;;18.35;100.00
8298;BME280;4187;42.778;23.242;2022-08-21T03:53:30;94750.41;;;18.38;100.00
8298;BME280;4187;42.778;23.242;2022-08-21T03:55:59;94740.34;;;18.40;100.00
8298;BME280;4187;42.778;23.242;2022-08-21T03:58:28;94713.00;;;18.25;100.00
8298;BME280;4187;42.778;23.242;2022-08-21T04:00:58;94745.69;;;18.40;100.00
8298;BME280;4187;42.778;23.242;2022-08-21T04:03:26;94746.09;;;18.43;100.00
8298;BME280;4187;42.778;23.242;2022-08-21T04:05:54;94743.63;;;18.42;100.00
8298;BME280;4187;42.778;23.242;2022-08-21T04:08:22;94747.94;;;18.43;100.00
8298;BME280;4187;42.778;23.242;2022-08-21T04:10:52;94725.13;;;18.34;100.00
8298;BME280;4187;42.778;23.242;2022-08-21T04:13:22;94729.44;;;18.41;100.00
8298;BME280;4187;42.778;23.242;2022-08-21T04:15:50;94739.94;;;18.49;100.00
8298;BME280;4187;42.778;23.242;2022-08-21T04:18:18;94722.84;;;18.44;100.00
8298;BME280;4187;42.778;23.242;2022-08-21T04:20:48;94725.13;;;18.40;100.00
8298;BME280;4187;42.778;23.242;2022-08-21T04:23:17;94745.28;;;18.43;100.00
8298;BME280;4187;42.778;23.242;2022-08-21T04:25:45;94751.84;;;18.47;100.00
8298;BME280;4187;42.778;23.242;2022-08-21T04:28:12;94756.97;;;18.42;100.00
8298;BME280;4187;42.778;23.242;2022-08-21T04:30:41;94753.28;;;18.43;100.00
8298;BME280;4187;42.778;23.242;2022-08-21T04:33:08;94752.88;;;18.46;100.00
8298;BME280;4187;42.778;23.242;2022-08-21T04:35:35;94752.50;;;18.49;100.00
8298;BME280;4187;42.778;23.242;2022-08-21T04:38:03;94750.63;;;18.49;100.00
8298;BME280;4187;42.778;23.242;2022-08-21T04:40:31;94755.78;;;18.51;100.00
8298;BME280;4187;42.778;23.242;2022-08-21T04:43:03;94739.75;;;18.51;100.00
8298;BME280;4187;42.778;23.242;2022-08-21T04:45:33;94749.41;;;18.59;100.00
8298;BME280;4187;42.778;23.242;2022-08-21T04:48:06;94743.84;;;18.67;100.00
8298;BME280;4187;42.778;23.242;2022-08-21T04:50:39;94751.66;;;18.75;100.00
8298;BME280;4187;42.778;23.242;2022-08-21T04:53:12;94638.22;;;18.12;100.00
8298;BME280;4187;42.778;23.242;2022-08-21T04:55:42;94753.28;;;18.82;100.00
8298;BME280;4187;42.778;23.242;2022-08-21T04:58:11;94747.13;;;18.88;100.00
8298;BME280;4187;42.778;23.242;2022-08-21T05:00:40;94747.72;;;18.90;100.00
8298;BME280;4187;42.778;23.242;2022-08-21T05:03:11;94743.81;;;18.93;100.00
8298;BME280;4187;42.778;23.242;2022-08-21T05:05:39;94738.28;;;18.94;100.00
8298;BME280;4187;42.778;23.242;2022-08-21T05:08:12;94751.00;;;19.05;100.00
8298;BME280;4187;42.778;23.242;2022-08-21T05:10:41;94758.63;;;19.08;100.00
8298;BME280;4187;42.778;23.242;2022-08-21T05:13:11;94760.22;;;19.09;100.00
8298;BME280;4187;42.778;23.242;2022-08-21T05:15:40;94761.66;;;19.19;100.00
8298;BME280;4187;42.778;23.242;2022-08-21T05:18:08;94758.34;;;19.23;100.00
8298;BME280;4187;42.778;23.242;2022-08-21T05:20:36;94766.38;;;19.30;100.00
8298;BME280;4187;42.778;23.242;2022-08-21T05:23:07;94763.88;;;19.35;100.00
8298;BME280;4187;42.778;23.242;2022-08-21T05:25:35;94766.16;;;19.38;100.00
8298;BME280;4187;42.778;23.242;2022-08-21T05:28:02;94762.44;;;19.39;100.00
8298;BME280;4187;42.778;23.242;2022-08-21T05:30:30;94761.59;;;19.45;100.00
8298;BME280;4187;42.778;23.242;2022-08-21T05:32:58;94762.63;;;19.50;100.00
8298;BME280;4187;42.778;23.242;2022-08-21T05:35:28;94752.72;;;19.51;100.00
8298;BME280;4187;42.778;23.242;2022-08-21T05:37:57;94734.66;;;19.46;100.00
8298;BME280;4187;42.778;23.242;2022-08-21T05:40:24;94738.94;;;19.54;100.00
8298;BME280;4187;42.778;23.242;2022-08-21T05:42:53;94747.53;;;19.62;100.00
8298;BME280;4187;42.778;23.242;2022-08-21T05:45:22;94744.63;;;19.64;100.00
8298;BME280;4187;42.778;23.242;2022-08-21T05:47:49;94746.91;;;19.67;100.00
8298;BME280;4187;42.778;23.242;2022-08-21T05:50:17;94731.47;;;19.62;100.00
8298;BME280;4187;42.778;23.242;2022-08-21T05:52:45;94707.44;;;19.49;100.00
8298;BME280;4187;42.778;23.242;2022-08-21T05:55:12;94740.69;;;19.73;100.00
8298;BME280;4187;42.778;23.242;2022-08-21T05:57:39;94757.13;;;19.77;100.00
8298;BME280;4187;42.778;23.242;2022-08-21T06:00:08;94755.50;;;19.76;100.00
8298;BME280;4187;42.778;23.242;2022-08-21T06:02:38;94748.09;;;19.71;100.00
8298;BME280;4187;42.778;23.242;2022-08-21T06:05:05;94753.69;;;19.69;100.00
8298;BME280;4187;42.778;23.242;2022-08-21T06:07:33;94731.28;;;19.57;100.00
8298;BME280;4187;42.778;23.242;2022-08-21T06:10:03;94755.88;;;19.79;100.00
8298;BME280;4187;42.778;23.242;2022-08-21T06:12:31;94750.72;;;19.84;100.00
8298;BME280;4187;42.778;23.242;2022-08-21T06:14:58;94698.53;;;19.62;100.00
8298;BME280;4187;42.778;23.242;2022-08-21T06:17:25;94742.66;;;19.91;100.00
8298;BME280;4187;42.778;23.242;2022-08-21T06:19:53;94736.69;;;19.89;100.00
8298;BME280;4187;42.778;23.242;2022-08-21T06:22:20;94753.53;;;19.96;100.00
8298;BME280;4187;42.778;23.242;2022-08-21T06:24:48;94758.88;;;19.96;100.00
8298;BME280;4187;42.778;23.242;2022-08-21T06:27:17;94754.38;;;19.90;100.00
8298;BME280;4187;42.778;23.242;2022-08-21T06:29:44;94752.28;;;19.98;100.00
8298;BME280;4187;42.778;23.242;2022-08-21T06:32:11;94755.34;;;20.08;100.00
8298;BME280;4187;42.778;23.242;2022-08-21T06:34:40;94754.66;;;20.13;100.00
8298;BME280;4187;42.778;23.242;2022-08-21T06:37:08;94744.28;;;20.23;100.00
8298;BME280;4187;42.778;23.242;2022-08-21T06:39:35;94754.03;;;20.49;100.00
8298;BME280;4187;42.778;23.242;2022-08-21T06:42:03;94755.94;;;20.66;100.00
8298;BME280;4187;42.778;23.242;2022-08-21T06:44:32;94749.28;;;20.75;100.00
8298;BME280;4187;42.778;23.242;2022-08-21T06:46:59;94756.59;;;20.86;100.00
8298;BME280;4187;42.778;23.242;2022-08-21T06:49:26;94761.75;;;20.88;100.00
8298;BME280;4187;42.778;23.242;2022-08-21T06:51:54;94760.19;;;20.99;100.00
8298;BME280;4187;42.778;23.242;2022-08-21T06:54:21;94763.75;;;21.17;100.00
8298;BME280;4187;42.778;23.242;2022-08-21T06:56:48;94761.97;;;21.29;100.00
8298;BME280;4187;42.778;23.242;2022-08-21T06:59:16;94746.63;;;21.36;100.00
8298;BME280;4187;42.778;23.242;2022-08-21T07:01:44;94760.50;;;21.52;100.00
8298;BME280;4187;42.778;23.242;2022-08-21T07:04:12;94764.81;;;21.71;100.00
8298;BME280;4187;42.778;23.242;2022-08-21T07:06:39;94766.25;;;21.85;100.00
8298;BME280;4187;42.778;23.242;2022-08-21T07:09:07;94773.72;;;22.01;100.00
8298;BME280;4187;42.778;23.242;2022-08-21T07:11:35;94771.47;;;22.16;100.00
8298;BME280;4187;42.778;23.242;2022-08-21T07:14:04;94759.13;;;22.27;100.00
8298;BME280;4187;42.778;23.242;2022-08-21T07:16:31;94784.44;;;22.60;100.00
8298;BME280;4187;42.778;23.242;2022-08-21T07:19:00;94788.97;;;22.78;100.00
8298;BME280;4187;42.778;23.242;2022-08-21T07:21:27;94767.31;;;22.85;100.00
8298;BME280;4187;42.778;23.242;2022-08-21T07:23:54;94780.56;;;23.21;100.00
8298;BME280;4187;42.778;23.242;2022-08-21T07:26:22;94781.53;;;23.38;100.00
8298;BME280;4187;42.778;23.242;2022-08-21T07:28:51;94782.78;;;23.59;100.00
8298;BME280;4187;42.778;23.242;2022-08-21T07:31:21;94785.44;;;23.82;100.00
8298;BME280;4187;42.778;23.242;2022-08-21T07:33:49;94768.22;;;23.71;100.00
8298;BME280;4187;42.778;23.242;2022-08-21T07:36:17;94757.25;;;23.61;100.00
8298;BME280;4187;42.778;23.242;2022-08-21T07:38:46;94776.31;;;23.83;100.00
8298;BME280;4187;42.778;23.242;2022-08-21T07:41:15;94773.56;;;23.95;100.00
8298;BME280;4187;42.778;23.242;2022-08-21T07:43:43;94765.63;;;23.88;100.00
8298;BME280;4187;42.778;23.242;2022-08-21T07:46:10;94770.06;;;23.94;100.00
8298;BME280;4187;42.778;23.242;2022-08-21T07:48:38;94768.63;;;24.03;100.00
8298;BME280;4187;42.778;23.242;2022-08-21T07:51:09;94761.25;;;24.10;100.00
8298;BME280;4187;42.778;23.242;2022-08-21T07:53:37;94765.44;;;24.18;100.00
8298;BME280;4187;42.778;23.242;2022-08-21T07:56:06;94766.44;;;24.28;100.00
8298;BME280;4187;42.778;23.242;2022-08-21T07:58:34;94754.13;;;24.32;100.00
8298;BME280;4187;42.778;23.242;2022-08-21T08:01:01;94762.63;;;24.58;100.00
8298;BME280;4187;42.778;23.242;2022-08-21T08:03:28;94762.16;;;24.77;100.00
8298;BME280;4187;42.778;23.242;2022-08-21T08:05:55;94764.84;;;24.89;100.00
8298;BME280;4187;42.778;23.242;2022-08-21T08:08:23;94768.66;;;25.10;100.00
8298;BME280;4187;42.778;23.242;2022-08-21T08:10:52;94770.13;;;25.17;100.00
8298;BME280;4187;42.778;23.242;2022-08-21T08:13:19;94769.78;;;25.47;100.00
8298;BME280;4187;42.778;23.242;2022-08-21T08:15:46;94762.28;;;25.71;100.00
8298;BME280;4187;42.778;23.242;2022-08-21T08:18:13;94768.81;;;25.96;100.00
8298;BME280;4187;42.778;23.242;2022-08-21T08:20:40;94766.50;;;26.05;100.00
8298;BME280;4187;42.778;23.242;2022-08-21T08:23:10;94747.00;;;26.03;100.00
8298;BME280;4187;42.778;23.242;2022-08-21T08:25:37;94759.34;;;26.16;100.00
8298;BME280;4187;42.778;23.242;2022-08-21T08:28:06;94749.50;;;26.09;100.00
8298;BME280;4187;42.778;23.242;2022-08-21T08:30:33;94751.09;;;26.05;100.00
8298;BME280;4187;42.778;23.242;2022-08-21T08:33:01;94758.56;;;25.98;100.00
8298;BME280;4187;42.778;23.242;2022-08-21T08:35:30;94758.81;;;25.75;100.00
8298;BME280;4187;42.778;23.242;2022-08-21T08:37:56;94713.50;;;25.44;100.00
8298;BME280;4187;42.778;23.242;2022-08-21T08:40:32;94742.59;;;25.53;100.00
8298;BME280;4187;42.778;23.242;2022-08-21T08:43:05;94744.13;;;25.49;100.00
8298;BME280;4187;42.778;23.242;2022-08-21T08:45:36;94756.13;;;25.75;100.00
8298;BME280;4187;42.778;23.242;2022-08-21T08:48:06;94763.03;;;25.66;100.00
8298;BME280;4187;42.778;23.242;2022-08-21T08:50:40;94760.94;;;25.51;100.00
8298;BME280;4187;42.778;23.242;2022-08-21T08:53:12;94760.63;;;25.31;100.00
8298;BME280;4187;42.778;23.242;2022-08-21T08:55:43;94764.41;;;25.30;100.00
8298;BME280;4187;42.778;23.242;2022-08-21T08:58:17;94760.06;;;25.13;100.00
8298;BME280;4187;42.778;23.242;2022-08-21T09:00:47;94749.81;;;25.31;100.00
8298;BME280;4187;42.778;23.242;2022-08-21T09:03:16;94750.06;;;25.30;100.00
8298;BME280;4187;42.778;23.242;2022-08-21T09:05:47;94753.00;;;25.28;100.00
8298;BME280;4187;42.778;23.242;2022-08-21T09:08:38;94751.41;;;25.11;100.00
8298;BME280;4187;42.778;23.242;2022-08-21T09:11:13;94726.78;;;25.07;100.00
8298;BME280;4187;42.778;23.242;2022-08-21T09:13:50;94723.91;;;25.14;100.00
8298;BME280;4187;42.778;23.242;2022-08-21T09:16:28;94736.91;;;25.17;100.00
8298;BME280;4187;42.778;23.242;2022-08-21T09:19:06;94708.91;;;25.23;100.00
8298;BME280;4187;42.778;23.242;2022-08-21T09:21:40;94728.72;;;25.67;100.00
8298;BME280;4187;42.778;23.242;2022-08-21T09:24:22;94702.56;;;25.72;100.00
8298;BME280;4187;42.778;23.242;2022-08-21T09:26:57;94728.22;;;26.13;100.00
8298;BME280;4187;42.778;23.242;2022-08-21T09:29:31;94700.13;;;26.46;100.00
8298;BME280;4187;42.778;23.242;2022-08-21T09:32:00;94699.28;;;26.72;100.00
8298;BME280;4187;42.778;23.242;2022-08-21T09:34:28;94712.53;;;27.00;97.51
8298;BME280;4187;42.778;23.242;2022-08-21T09:36:57;94694.22;;;27.17;100.00
8298;BME280;4187;42.778;23.242;2022-08-21T09:39:28;94713.41;;;27.53;98.26
8298;BME280;4187;42.778;23.242;2022-08-21T09:41:57;94702.66;;;27.68;99.86
8298;BME280;4187;42.778;23.242;2022-08-21T09:44:28;94709.25;;;27.92;95.71
8298;BME280;4187;42.778;23.242;2022-08-21T09:46:56;94689.69;;;27.85;93.60
8298;BME280;4187;42.778;23.242;2022-08-21T09:49:27;94694.41;;;28.05;97.59
8298;BME280;4187;42.778;23.242;2022-08-21T09:51:57;94706.91;;;28.11;91.73
8298;BME280;4187;42.778;23.242;2022-08-21T09:54:30;94679.00;;;27.53;92.28
8298;BME280;4187;42.778;23.242;2022-08-21T09:57:14;94683.09;;;27.66;93.11
8298;BME280;4187;42.778;23.242;2022-08-21T10:00:10;94688.56;;;27.71;89.42
8298;BME280;4187;42.778;23.242;2022-08-21T10:02:43;94681.69;;;27.53;91.16
8298;BME280;4187;42.778;23.242;2022-08-21T10:05:18;94640.59;;;27.19;90.13
8298;BME280;4187;42.778;23.242;2022-08-21T10:07:46;94673.03;;;27.56;89.67
8298;BME280;4187;42.778;23.242;2022-08-21T10:10:16;94671.53;;;27.90;98.10
8298;BME280;4187;42.778;23.242;2022-08-21T10:12:48;94671.34;;;28.12;90.23
8298;BME280;4187;42.778;23.242;2022-08-21T10:15:31;94673.53;;;28.10;87.38
8298;BME280;4187;42.778;23.242;2022-08-21T10:18:10;94666.69;;;27.93;88.64
8298;BME280;4187;42.778;23.242;2022-08-21T10:20:43;94662.91;;;28.04;92.46
8298;BME280;4187;42.778;23.242;2022-08-21T10:23:26;94661.63;;;28.16;88.14
8298;BME280;4187;42.778;23.242;2022-08-21T10:26:01;94668.09;;;28.10;87.57
8298;BME280;4187;42.778;23.242;2022-08-21T10:28:36;94658.47;;;27.72;90.96
8298;BME280;4187;42.778;23.242;2022-08-21T10:31:21;94650.44;;;27.36;90.24
8298;BME280;4187;42.778;23.242;2022-08-21T10:34:01;94647.00;;;27.50;94.79
8298;BME280;4187;42.778;23.242;2022-08-21T10:36:37;94653.84;;;27.63;91.99
8298;BME280;4187;42.778;23.242;2022-08-21T10:39:15;94645.44;;;27.69;89.46
8298;BME280;4187;42.778;23.242;2022-08-21T10:44:51;94648.75;;;27.86;90.20
8298;BME280;4187;42.778;23.242;2022-08-21T10:47:29;94629.78;;;27.97;90.48
8298;BME280;4187;42.778;23.242;2022-08-21T10:50:07;94630.91;;;28.01;87.24
8298;BME280;4187;42.778;23.242;2022-08-21T10:53:00;94634.19;;;28.18;86.63
8298;BME280;4187;42.778;23.242;2022-08-21T10:55:34;94615.22;;;28.18;90.48
8298;BME280;4187;42.778;23.242;2022-08-21T10:58:08;94515.22;;;27.39;84.30
8298;BME280;4187;42.778;23.242;2022-08-21T11:00:40;94628.97;;;27.91;85.82
8298;BME280;4187;42.778;23.242;2022-08-21T11:03:12;94621.81;;;27.55;88.64
8298;BME280;4187;42.778;23.242;2022-08-21T11:05:43;94603.38;;;27.52;91.08
8298;BME280;4187;42.778;23.242;2022-08-21T11:08:17;94625.63;;;27.59;89.60
8298;BME280;4187;42.778;23.242;2022-08-21T11:10:49;94617.47;;;27.49;87.87
8298;BME280;4187;42.778;23.242;2022-08-21T11:13:25;94610.84;;;27.29;88.75
8298;BME280;4187;42.778;23.242;2022-08-21T11:16:00;94608.97;;;27.35;87.12
8298;BME280;4187;42.778;23.242;2022-08-21T11:18:33;94605.91;;;27.78;86.88
8298;BME280;4187;42.778;23.242;2022-08-21T11:21:15;94601.63;;;28.08;86.27
8298;BME280;4187;42.778;23.242;2022-08-21T11:23:50;94599.47;;;28.15;87.05
8298;BME280;4187;42.778;23.242;2022-08-21T11:26:25;94599.19;;;28.41;91.45
8298;BME280;4187;42.778;23.242;2022-08-21T11:29:04;94571.50;;;28.44;85.02
8298;BME280;4187;42.778;23.242;2022-08-21T11:31:44;94596.50;;;28.57;84.81
8298;BME280;4187;42.778;23.242;2022-08-21T11:34:24;94587.81;;;28.39;87.25
8298;BME280;4187;42.778;23.242;2022-08-21T11:37:02;94588.34;;;28.11;86.75
8298;BME280;4187;42.778;23.242;2022-08-21T11:39:39;94580.22;;;28.16;90.81
8298;BME280;4187;42.778;23.242;2022-08-21T11:42:19;94579.94;;;28.23;86.69
8298;BME280;4187;42.778;23.242;2022-08-21T11:44:53;94580.78;;;28.38;85.36
8298;BME280;4187;42.778;23.242;2022-08-21T11:47:30;94568.00;;;28.54;88.92
8298;BME280;4187;42.778;23.242;2022-08-21T11:50:14;94589.69;;;28.94;89.69
8298;BME280;4187;42.778;23.242;2022-08-21T11:52:45;94587.72;;;29.10;87.57
8298;BME280;4187;42.778;23.242;2022-08-21T11:55:19;94586.13;;;29.04;88.40
8298;BME280;4187;42.778;23.242;2022-08-21T11:57:53;94582.94;;;28.72;85.95
8298;BME280;4187;42.778;23.242;2022-08-21T12:00:25;94585.09;;;28.80;87.29
8298;BME280;4187;42.778;23.242;2022-08-21T12:02:55;94581.00;;;28.92;86.77
8298;BME280;4187;42.778;23.242;2022-08-21T12:05:37;94576.59;;;29.01;86.79
8298;BME280;4187;42.778;23.242;2022-08-21T12:08:10;94567.66;;;28.96;83.94
8298;BME280;4187;42.778;23.242;2022-08-21T12:10:40;94577.78;;;28.60;84.32
8298;BME280;4187;42.778;23.242;2022-08-21T12:13:10;94562.84;;;28.42;86.01
8298;BME280;4187;42.778;23.242;2022-08-21T12:15:39;94567.72;;;28.40;87.19
8298;BME280;4187;42.778;23.242;2022-08-21T12:18:21;94550.91;;;28.38;85.84
8298;BME280;4187;42.778;23.242;2022-08-21T12:21:01;94569.34;;;28.41;85.06
8298;BME280;4187;42.778;23.242;2022-08-21T12:23:31;94568.28;;;28.37;84.00
8298;BME280;4187;42.778;23.242;2022-08-21T12:26:02;94565.28;;;28.44;87.35
8298;BME280;4187;42.778;23.242;2022-08-21T12:28:30;94565.00;;;28.56;86.71
8298;BME280;4187;42.778;23.242;2022-08-21T12:30:59;94573.66;;;28.58;85.52
8298;BME280;4187;42.778;23.242;2022-08-21T12:33:30;94582.94;;;28.46;83.27
8298;BME280;4187;42.778;23.242;2022-08-21T12:36:06;94560.41;;;28.26;82.38
8298;BME280;4187;42.778;23.242;2022-08-21T12:38:47;94582.94;;;28.31;84.75
8298;BME280;4187;42.778;23.242;2022-08-21T12:41:19;94583.47;;;28.18;84.02
8298;BME280;4187;42.778;23.242;2022-08-21T12:43:53;94572.28;;;27.95;85.13
8298;BME280;4187;42.778;23.242;2022-08-21T12:46:30;94577.72;;;27.84;84.26
8298;BME280;4187;42.778;23.242;2022-08-21T12:49:03;94575.78;;;27.70;85.12
8298;BME280;4187;42.778;23.242;2022-08-21T12:51:43;94567.50;;;27.40;84.16
8298;BME280;4187;42.778;23.242;2022-08-21T12:54:23;94558.00;;;27.27;86.08
8298;BME280;4187;42.778;23.242;2022-08-21T12:57:01;94558.19;;;27.10;86.54
8298;BME280;4187;42.778;23.242;2022-08-21T12:59:30;94535.00;;;26.78;87.40
8298;BME280;4187;42.778;23.242;2022-08-21T13:01:59;94534.06;;;26.57;87.47
8298;BME280;4187;42.778;23.242;2022-08-21T13:04:35;94557.66;;;26.66;88.78
8298;BME280;4187;42.778;23.242;2022-08-21T13:07:09;94566.53;;;26.57;90.18
8298;BME280;4187;42.778;23.242;2022-08-21T13:09:55;94557.28;;;26.48;92.11
8298;BME280;4187;42.778;23.242;2022-08-21T13:12:24;94548.38;;;26.52;91.73
8298;BME280;4187;42.778;23.242;2022-08-21T13:14:56;94558.97;;;26.59;91.28
8298;BME280;4187;42.778;23.242;2022-08-21T13:17:26;94555.63;;;26.47;91.72
8298;BME280;4187;42.778;23.242;2022-08-21T13:19:55;94559.50;;;26.56;92.15
8298;BME280;4187;42.778;23.242;2022-08-21T13:22:24;94557.75;;;26.40;92.44